Time;durP1;ratioP1;P1;durP2;ratioP2;P2;SDS_P1;SDS_P2;PMS_P1;PMS_P2;Temp;Humidity;BMP_temperature;BMP_pressure;BME280_temperature;BME280_humidity;BME280_pressure;Samples;Min_cycle;Max_cycle;Signal;HPM_P1;HPM_P2
2021/08/27 00:00:13;;;;;;;11.88;4.50;;;;;;;;;;6126331;23;21027;-73
2021/08/27 00:02:40;;;;;;;9.20;4.60;;;;;;;;;;6125554;23;20010;-73
2021/08/27 00:05:07;;;;;;;11.13;4.53;;;;;;;;;;6126240;23;20013;-72
2021/08/27 00:07:32;;;;;;;9.85;4.65;;;;;;;;;;6125945;23;20001;-73
2021/08/27 00:09:58;;;;;;;9.88;5.03;;;;;;;;;;6125874;23;19993;-73
2021/08/27 00:12:24;;;;;;;8.73;4.75;;;;;;;;;;6126184;23;20069;-73
2021/08/27 00:14:51;;;;;;;8.82;4.85;;;;;;;;;;6126178;23;20029;-73
2021/08/27 00:17:17;;;;;;;8.57;4.68;;;;;;;;;;6125933;23;20006;-73
2021/08/27 00:19:43;;;;;;;9.10;4.60;;;;;;;;;;6126046;23;20093;-73
2021/08/27 00:22:09;;;;;;;10.45;5.22;;;;;;;;;;6125948;23;20109;-73
2021/08/27 00:24:35;;;;;;;10.60;4.82;;;;;;;;;;6126130;23;20010;-73
2021/08/27 00:27:01;;;;;;;10.75;5.65;;;;;;;;;;6126004;23;20423;-73
2021/08/27 00:29:27;;;;;;;9.32;4.97;;;;;;;;;;6126042;23;20006;-73
2021/08/27 00:31:53;;;;;;;11.85;5.32;;;;;;;;;;6125836;23;20073;-73
2021/08/27 00:34:19;;;;;;;13.95;5.55;;;;;;;;;;6126044;23;20052;-73
2021/08/27 00:36:46;;;;;;;9.68;5.82;;;;;;;;;;6125831;23;20001;-72
2021/08/27 00:39:12;;;;;;;10.95;5.80;;;;;;;;;;6125893;23;19994;-73
2021/08/27 00:41:38;;;;;;;9.60;5.38;;;;;;;;;;6125917;23;20001;-73
2021/08/27 00:44:04;;;;;;;9.38;5.20;;;;;;;;;;6125369;23;20006;-73
2021/08/27 00:46:30;;;;;;;10.13;4.90;;;;;;;;;;6125947;23;20514;-73
2021/08/27 00:48:55;;;;;;;10.13;4.78;;;;;;;;;;6125787;23;20033;-73
2021/08/27 00:51:22;;;;;;;11.90;5.50;;;;;;;;;;6125740;23;20483;-73
2021/08/27 00:53:48;;;;;;;10.48;5.63;;;;;;;;;;6099820;23;20034;-73
2021/08/27 00:56:15;;;;;;;11.30;5.78;;;;;;;;;;6125808;23;20376;-73
2021/08/27 00:58:40;;;;;;;12.70;5.65;;;;;;;;;;6125864;23;19998;-73
2021/08/27 01:01:06;;;;;;;10.50;5.97;;;;;;;;;;6125771;23;20002;-72
2021/08/27 01:03:33;;;;;;;15.18;6.88;;;;;;;;;;6125049;23;20018;-73
2021/08/27 01:06:06;;;;;;;14.38;6.25;;;;;;;;;;6125341;23;20037;-73
2021/08/27 01:08:37;;;;;;;17.13;6.40;;;;;;;;;;6125589;23;20002;-73
2021/08/27 01:11:08;;;;;;;11.90;6.30;;;;;;;;;;6125813;23;19998;-73
2021/08/27 01:13:40;;;;;;;13.70;7.00;;;;;;;;;;6125982;23;19998;-73
2021/08/27 01:16:16;;;;;;;14.30;6.82;;;;;;;;;;6125533;23;20002;-73
2021/08/27 01:18:51;;;;;;;16.13;6.80;;;;;;;;;;6125621;23;20002;-73
2021/08/27 01:21:36;;;;;;;13.05;6.82;;;;;;;;;;6125725;23;20005;-73
2021/08/27 01:24:04;;;;;;;11.82;5.78;;;;;;;;;;6125257;23;20006;-73
2021/08/27 01:26:32;;;;;;;15.45;6.38;;;;;;;;;;6126381;23;19997;-74
2021/08/27 01:28:59;;;;;;;11.27;6.63;;;;;;;;;;6127394;23;20022;-73
2021/08/27 01:31:39;;;;;;;11.27;6.63;;;;;;;;;;6127743;23;20388;-74
2021/08/27 01:34:13;;;;;;;12.82;6.70;;;;;;;;;;6127373;23;20004;-74
2021/08/27 01:36:39;;;;;;;11.18;6.57;;;;;;;;;;6127535;23;20034;-74
2021/08/27 01:39:06;;;;;;;12.45;7.05;;;;;;;;;;6101501;23;20002;-73
2021/08/27 01:41:34;;;;;;;11.38;6.90;;;;;;;;;;6101643;23;20081;-73
2021/08/27 01:44:07;;;;;;;14.40;6.72;;;;;;;;;;6127112;23;20033;-73
2021/08/27 01:46:38;;;;;;;11.10;7.13;;;;;;;;;;6127486;23;19997;-73
2021/08/27 01:49:06;;;;;;;12.48;7.22;;;;;;;;;;6127532;23;20327;-73
2021/08/27 01:51:33;;;;;;;12.07;6.75;;;;;;;;;;6101504;23;20036;-74
2021/08/27 01:53:59;;;;;;;11.30;6.35;;;;;;;;;;6126886;23;20002;-73
2021/08/27 01:56:25;;;;;;;10.18;6.38;;;;;;;;;;6127400;23;19998;-73
2021/08/27 01:58:51;;;;;;;13.35;7.22;;;;;;;;;;6127587;23;20004;-73
2021/08/27 02:01:17;;;;;;;12.77;6.35;;;;;;;;;;6127261;23;20030;-73
2021/08/27 02:03:44;;;;;;;10.10;6.18;;;;;;;;;;6126928;23;20025;-73
2021/08/27 02:06:10;;;;;;;11.73;6.22;;;;;;;;;;6127327;23;20008;-73
2021/08/27 02:08:37;;;;;;;12.02;6.00;;;;;;;;;;6127112;23;19994;-72
2021/08/27 02:11:04;;;;;;;11.23;5.55;;;;;;;;;;6101124;23;20002;-73
2021/08/27 02:13:30;;;;;;;11.75;6.35;;;;;;;;;;6127425;23;20040;-73
2021/08/27 02:15:56;;;;;;;9.13;4.95;;;;;;;;;;6126916;23;20093;-72
2021/08/27 02:18:22;;;;;;;9.82;5.97;;;;;;;;;;6127389;23;19998;-73
2021/08/27 02:20:49;;;;;;;10.60;5.43;;;;;;;;;;6127256;23;20009;-73
2021/08/27 02:23:15;;;;;;;6.95;4.30;;;;;;;;;;6126872;23;20005;-73
2021/08/27 02:25:47;;;;;;;6.47;4.30;;;;;;;;;;6127018;23;20002;-73
2021/08/27 02:28:14;;;;;;;8.07;4.20;;;;;;;;;;6127124;23;20001;-73
2021/08/27 02:30:40;;;;;;;8.00;4.10;;;;;;;;;;6127201;23;20331;-73
2021/08/27 02:33:08;;;;;;;10.43;4.03;;;;;;;;;;6126991;23;20128;-73
2021/08/27 02:35:35;;;;;;;6.37;3.50;;;;;;;;;;6127213;23;20054;-73
2021/08/27 02:38:02;;;;;;;5.47;3.55;;;;;;;;;;6126608;23;19998;-73
2021/08/27 02:40:28;;;;;;;9.73;3.88;;;;;;;;;;6126877;23;20061;-73
2021/08/27 02:42:54;;;;;;;6.68;3.50;;;;;;;;;;6126915;23;20033;-73
2021/08/27 02:45:20;;;;;;;9.63;4.00;;;;;;;;;;6126915;23;20025;-73
2021/08/27 02:47:46;;;;;;;7.50;4.13;;;;;;;;;;6126770;23;19998;-73
2021/08/27 02:50:13;;;;;;;11.02;3.92;;;;;;;;;;6126781;23;19997;-73
2021/08/27 02:52:48;;;;;;;8.10;4.22;;;;;;;;;;6100689;23;20057;-74
2021/08/27 02:55:22;;;;;;;8.48;4.80;;;;;;;;;;6126866;23;20005;-74
2021/08/27 02:58:02;;;;;;;7.60;4.30;;;;;;;;;;6126891;23;20490;-73
2021/08/27 03:00:28;;;;;;;;;;;;;;;;;;6127389;23;20435;-73
2021/08/27 03:02:55;;;;;;;9.68;5.00;;;;;;;;;;6125895;23;19913;-72
2021/08/27 03:05:23;;;;;;;10.57;4.95;;;;;;;;;;6126746;23;20006;-73
2021/08/27 03:07:57;;;;;;;8.20;4.75;;;;;;;;;;6126669;23;20086;-73
2021/08/27 03:10:29;;;;;;;9.32;4.82;;;;;;;;;;6126712;23;19994;-73
2021/08/27 03:13:13;;;;;;;8.77;4.97;;;;;;;;;;6100840;23;20002;-73
2021/08/27 03:15:47;;;;;;;10.95;4.60;;;;;;;;;;6126490;23;19994;-73
2021/08/27 03:18:18;;;;;;;9.43;4.88;;;;;;;;;;6126523;23;19994;-73
2021/08/27 03:21:03;;;;;;;9.02;4.72;;;;;;;;;;6126580;23;20024;-73
2021/08/27 03:23:30;;;;;;;8.13;4.80;;;;;;;;;;6126511;23;20013;-73
2021/08/27 03:25:58;;;;;;;9.90;4.57;;;;;;;;;;6126121;23;20065;-73
2021/08/27 03:28:25;;;;;;;11.30;4.43;;;;;;;;;;6100384;23;19998;-74
2021/08/27 03:30:53;;;;;;;6.82;4.22;;;;;;;;;;6127132;23;20429;-74
2021/08/27 03:33:19;;;;;;;7.25;4.47;;;;;;;;;;6126367;23;19997;-74
2021/08/27 03:35:47;;;;;;;8.80;4.28;;;;;;;;;;6126030;23;20002;-73
2021/08/27 03:38:14;;;;;;;8.40;4.65;;;;;;;;;;6126405;23;19997;-74
2021/08/27 03:40:40;;;;;;;6.60;4.00;;;;;;;;;;6126237;23;19997;-73
2021/08/27 03:43:07;;;;;;;6.70;4.05;;;;;;;;;;6126374;23;20017;-73
2021/08/27 03:45:32;;;;;;;8.10;4.93;;;;;;;;;;6126421;23;19994;-74
2021/08/27 03:47:59;;;;;;;5.90;3.80;;;;;;;;;;6125993;23;20002;-72
2021/08/27 03:50:25;;;;;;;7.60;3.97;;;;;;;;;;6125859;23;19994;-74
2021/08/27 03:52:52;;;;;;;6.35;3.75;;;;;;;;;;6126416;23;20021;-74
2021/08/27 03:55:19;;;;;;;8.18;4.15;;;;;;;;;;6126163;23;20432;-73
2021/08/27 03:57:46;;;;;;;5.20;3.70;;;;;;;;;;6126159;23;20069;-73
2021/08/27 04:00:12;;;;;;;11.38;4.68;;;;;;;;;;6126242;23;19998;-73
2021/08/27 04:02:38;;;;;;;7.43;4.43;;;;;;;;;;6125435;23;20028;-73
2021/08/27 04:05:08;;;;;;;6.13;3.83;;;;;;;;;;6125753;23;20069;-73
2021/08/27 04:07:35;;;;;;;8.80;4.28;;;;;;;;;;6126132;23;20013;-73
2021/08/27 04:10:00;;;;;;;7.47;4.18;;;;;;;;;;6125571;23;19997;-73
2021/08/27 04:12:26;;;;;;;6.15;3.80;;;;;;;;;;6126141;23;20009;-73
2021/08/27 04:14:52;;;;;;;11.52;5.00;;;;;;;;;;6100123;23;20089;-73
2021/08/27 04:17:18;;;;;;;7.30;4.28;;;;;;;;;;6126038;23;20005;-73
2021/08/27 04:19:44;;;;;;;6.60;4.10;;;;;;;;;;6125806;23;20072;-73
2021/08/27 04:22:09;;;;;;;8.95;4.13;;;;;;;;;;6125856;23;20028;-73
2021/08/27 04:24:36;;;;;;;8.05;3.95;;;;;;;;;;6125720;23;20010;-73
2021/08/27 04:27:02;;;;;;;7.15;4.13;;;;;;;;;;6126053;23;20380;-73
2021/08/27 04:29:28;;;;;;;11.05;4.15;;;;;;;;;;6099989;23;20097;-73
2021/08/27 04:31:56;;;;;;;8.48;4.60;;;;;;;;;;6125731;23;20004;-73
2021/08/27 04:34:22;;;;;;;11.45;5.00;;;;;;;;;;6125979;23;20339;-73
2021/08/27 04:36:48;;;;;;;6.68;4.00;;;;;;;;;;6126029;23;20017;-73
2021/08/27 04:39:15;;;;;;;6.20;4.22;;;;;;;;;;6125610;23;20046;-73
2021/08/27 04:41:41;;;;;;;10.15;4.72;;;;;;;;;;6125839;23;20054;-73
2021/08/27 04:44:06;;;;;;;12.18;6.22;;;;;;;;;;6125379;23;20010;-72
2021/08/27 04:46:32;;;;;;;9.55;5.95;;;;;;;;;;6125796;23;20474;-73
2021/08/27 04:48:59;;;;;;;8.65;5.45;;;;;;;;;;6125977;23;20021;-73
2021/08/27 04:51:25;;;;;;;10.35;7.15;;;;;;;;;;6125830;23;20088;-73
2021/08/27 04:53:52;;;;;;;12.30;6.93;;;;;;;;;;6125549;23;20372;-73
2021/08/27 04:56:17;;;;;;;10.20;6.70;;;;;;;;;;6125848;23;20084;-73
2021/08/27 04:58:44;;;;;;;10.15;6.00;;;;;;;;;;6125818;23;20025;-73
2021/08/27 05:01:10;;;;;;;11.00;5.82;;;;;;;;;;6125545;23;20005;-73
2021/08/27 05:03:36;;;;;;;10.65;5.88;;;;;;;;;;6125445;23;20014;-73
2021/08/27 05:06:02;;;;;;;8.82;4.75;;;;;;;;;;6099678;23;20048;-73
2021/08/27 05:08:28;;;;;;;5.65;3.95;;;;;;;;;;6125509;23;20060;-73
2021/08/27 05:10:54;;;;;;;8.30;4.30;;;;;;;;;;6125809;23;20005;-73
2021/08/27 05:13:20;;;;;;;9.48;4.20;;;;;;;;;;6125720;23;20085;-73
2021/08/27 05:15:46;;;;;;;8.65;4.55;;;;;;;;;;6099579;23;20104;-73
2021/08/27 05:18:13;;;;;;;8.38;4.57;;;;;;;;;;6125679;23;20428;-73
2021/08/27 05:20:39;;;;;;;6.90;4.18;;;;;;;;;;6125660;23;20503;-73
2021/08/27 05:23:05;;;;;;;6.18;3.90;;;;;;;;;;6125445;23;20514;-73
2021/08/27 05:25:31;;;;;;;8.32;4.00;;;;;;;;;;6126026;23;20056;-73
2021/08/27 05:27:57;;;;;;;10.98;4.18;;;;;;;;;;6125317;23;20053;-73
2021/08/27 05:30:23;;;;;;;6.93;4.30;;;;;;;;;;6125677;23;20002;-73
2021/08/27 05:32:49;;;;;;;6.10;3.90;;;;;;;;;;6125717;23;19994;-74
2021/08/27 05:35:16;;;;;;;9.38;4.22;;;;;;;;;;6125472;23;20002;-73
2021/08/27 05:37:42;;;;;;;14.65;4.90;;;;;;;;;;6125373;23;20005;-73
2021/08/27 05:40:09;;;;;;;12.07;5.03;;;;;;;;;;6125384;23;20002;-73
2021/08/27 05:42:37;;;;;;;7.57;5.03;;;;;;;;;;6125584;23;20080;-73
2021/08/27 05:45:03;;;;;;;9.90;4.95;;;;;;;;;;6125655;23;20416;-72
2021/08/27 05:47:30;;;;;;;10.32;4.47;;;;;;;;;;6069766;23;20002;-73
2021/08/27 05:49:56;;;;;;;7.95;4.20;;;;;;;;;;6118416;23;20028;-73
2021/08/27 05:52:23;;;;;;;9.02;4.40;;;;;;;;;;6125332;23;20001;-73
2021/08/27 05:54:49;;;;;;;7.57;3.75;;;;;;;;;;6125770;23;19998;-73
2021/08/27 05:57:15;;;;;;;9.07;4.65;;;;;;;;;;6125427;23;20008;-72
2021/08/27 05:59:40;;;;;;;9.02;4.60;;;;;;;;;;6126058;23;19998;-73
2021/08/27 06:02:07;;;;;;;5.97;3.55;;;;;;;;;;6099305;23;20334;-72
2021/08/27 06:04:33;;;;;;;6.63;3.90;;;;;;;;;;6124896;23;20018;-73
2021/08/27 06:06:59;;;;;;;7.72;3.83;;;;;;;;;;6124431;23;20431;-74
2021/08/27 06:09:25;;;;;;;9.38;4.78;;;;;;;;;;6124261;23;19994;-70
2021/08/27 06:11:50;;;;;;;10.52;5.05;;;;;;;;;;6122892;23;20330;-73
2021/08/27 06:14:17;;;;;;;10.75;5.43;;;;;;;;;;6125404;23;20002;-73
2021/08/27 06:16:42;;;;;;;7.38;4.47;;;;;;;;;;6126306;23;20380;-73
2021/08/27 06:19:08;;;;;;;6.07;4.03;;;;;;;;;;6126110;23;20001;-70
2021/08/27 06:21:35;;;;;;;10.60;4.53;;;;;;;;;;6125260;23;20006;-73
2021/08/27 06:24:02;;;;;;;8.98;4.30;;;;;;;;;;6126504;23;20053;-74
2021/08/27 06:26:27;;;;;;;9.90;4.40;;;;;;;;;;6127120;23;19994;-73
2021/08/27 06:28:53;;;;;;;8.20;4.28;;;;;;;;;;6126602;23;20336;-74
2021/08/27 06:31:20;;;;;;;6.40;4.18;;;;;;;;;;6126440;23;19998;-72
2021/08/27 06:33:45;;;;;;;9.98;4.63;;;;;;;;;;6126387;23;20021;-65
2021/08/27 06:36:12;;;;;;;7.30;4.20;;;;;;;;;;6125597;23;20416;-67
2021/08/27 06:38:37;;;;;;;8.40;4.32;;;;;;;;;;6122996;23;20012;-67
2021/08/27 06:41:04;;;;;;;8.65;5.10;;;;;;;;;;6125930;23;20002;-66
2021/08/27 06:43:31;;;;;;;7.45;4.18;;;;;;;;;;6125927;23;20032;-66
2021/08/27 06:45:58;;;;;;;8.00;4.63;;;;;;;;;;6125273;23;20061;-67
2021/08/27 06:48:56;;;;;;;10.70;5.18;;;;;;;;;;6125387;23;19998;-66
2021/08/27 06:51:48;;;;;;;8.25;4.50;;;;;;;;;;6122898;23;20006;-69
2021/08/27 06:54:18;;;;;;;11.75;5.05;;;;;;;;;;6122831;23;20006;-70
2021/08/27 06:56:43;;;;;;;8.80;4.60;;;;;;;;;;6099486;23;20002;-69
2021/08/27 06:59:09;;;;;;;9.85;4.75;;;;;;;;;;6100412;23;20447;-71
2021/08/27 07:01:34;;;;;;;7.53;4.82;;;;;;;;;;6125332;23;20451;-65
2021/08/27 07:04:00;;;;;;;10.60;5.15;;;;;;;;;;6125375;23;20054;-67
2021/08/27 07:06:25;;;;;;;11.70;5.88;;;;;;;;;;6126184;23;20001;-68
2021/08/27 07:08:50;;;;;;;11.10;5.80;;;;;;;;;;6123394;23;20001;-67
2021/08/27 07:11:17;;;;;;;12.55;5.80;;;;;;;;;;6126358;23;20002;-68
2021/08/27 07:13:42;;;;;;;11.32;5.75;;;;;;;;;;6126252;23;20801;-67
2021/08/27 07:16:08;;;;;;;16.25;6.65;;;;;;;;;;6125746;23;20002;-67
2021/08/27 07:18:33;;;;;;;9.65;6.38;;;;;;;;;;6126085;23;20005;-67
2021/08/27 07:20:59;;;;;;;15.77;6.82;;;;;;;;;;6126073;23;19994;-67
2021/08/27 07:23:25;;;;;;;14.00;7.30;;;;;;;;;;6124978;23;20005;-68
2021/08/27 07:25:51;;;;;;;10.50;6.03;;;;;;;;;;6126180;23;20029;-68
2021/08/27 07:28:18;;;;;;;11.57;6.45;;;;;;;;;;6126327;23;19998;-66
2021/08/27 07:30:44;;;;;;;13.60;6.65;;;;;;;;;;6125407;23;20096;-67
2021/08/27 07:33:09;;;;;;;14.38;7.30;;;;;;;;;;6126182;23;20021;-68
2021/08/27 07:35:35;;;;;;;11.93;6.80;;;;;;;;;;6126135;23;20005;-67
2021/08/27 07:38:01;;;;;;;11.73;6.18;;;;;;;;;;6124798;23;19997;-68
2021/08/27 07:40:27;;;;;;;10.25;6.50;;;;;;;;;;6125952;23;20013;-67
2021/08/27 07:42:54;;;;;;;13.60;6.85;;;;;;;;;;6126037;23;20029;-68
2021/08/27 07:45:20;;;;;;;12.13;7.15;;;;;;;;;;6125340;23;20108;-65
2021/08/27 07:47:46;;;;;;;9.20;6.13;;;;;;;;;;6125820;23;20009;-67
2021/08/27 07:50:13;;;;;;;14.90;7.38;;;;;;;;;;6126444;23;20411;-67
2021/08/27 07:52:39;;;;;;;13.13;6.80;;;;;;;;;;6123986;23;20080;-66
2021/08/27 07:55:05;;;;;;;9.07;6.72;;;;;;;;;;6126343;23;19998;-68
2021/08/27 07:57:30;;;;;;;11.90;6.75;;;;;;;;;;6126664;23;20005;-67
2021/08/27 07:59:56;;;;;;;11.65;6.93;;;;;;;;;;6125105;23;19998;-66
2021/08/27 08:02:22;;;;;;;12.02;7.13;;;;;;;;;;6125080;23;20029;-67
2021/08/27 08:04:47;;;;;;;12.68;7.03;;;;;;;;;;6125821;23;20017;-66
2021/08/27 08:07:13;;;;;;;9.25;6.07;;;;;;;;;;6124328;23;20009;-65
2021/08/27 08:09:38;;;;;;;11.45;6.68;;;;;;;;;;6125275;23;20001;-67
2021/08/27 08:12:04;;;;;;;10.73;6.10;;;;;;;;;;6124030;23;20061;-67
2021/08/27 08:14:29;;;;;;;10.20;5.85;;;;;;;;;;6123981;23;20002;-67
2021/08/27 08:16:55;;;;;;;12.25;6.43;;;;;;;;;;6120058;23;20478;-65
2021/08/27 08:19:21;;;;;;;11.05;6.45;;;;;;;;;;6097511;23;20085;-65
2021/08/27 08:21:47;;;;;;;9.88;6.30;;;;;;;;;;6122920;23;20069;-65
2021/08/27 08:24:12;;;;;;;11.18;6.25;;;;;;;;;;6124271;23;20017;-67
2021/08/27 08:26:38;;;;;;;10.20;6.68;;;;;;;;;;6122527;23;20037;-65
2021/08/27 08:29:05;;;;;;;12.80;7.28;;;;;;;;;;6120762;23;20002;-66
2021/08/27 08:31:31;;;;;;;11.85;6.32;;;;;;;;;;6123720;23;20335;-66
2021/08/27 08:33:57;;;;;;;12.23;6.88;;;;;;;;;;6123578;23;20331;-66
2021/08/27 08:36:22;;;;;;;13.05;7.07;;;;;;;;;;6122137;23;20041;-66
2021/08/27 08:38:48;;;;;;;11.55;7.45;;;;;;;;;;6119692;23;20004;-65
2021/08/27 08:41:15;;;;;;;11.57;6.68;;;;;;;;;;6124771;23;20305;-66
2021/08/27 08:43:41;;;;;;;12.25;7.70;;;;;;;;;;6123592;23;20108;-64
2021/08/27 08:46:07;;;;;;;14.23;7.85;;;;;;;;;;6123484;23;20089;-66
2021/08/27 08:48:33;;;;;;;13.90;7.07;;;;;;;;;;6124271;23;20309;-66
2021/08/27 08:51:00;;;;;;;11.65;7.18;;;;;;;;;;6124655;23;20486;-65
2021/08/27 08:53:26;;;;;;;11.93;7.35;;;;;;;;;;6123869;23;20017;-66
2021/08/27 08:55:52;;;;;;;13.75;7.45;;;;;;;;;;6123158;23;20044;-65
2021/08/27 08:58:17;;;;;;;15.23;8.13;;;;;;;;;;6124016;23;20010;-66
2021/08/27 09:00:43;;;;;;;13.00;7.50;;;;;;;;;;6123738;23;20069;-66
2021/08/27 09:03:09;;;;;;;12.10;7.53;;;;;;;;;;6123140;23;20109;-66
2021/08/27 09:05:34;;;;;;;13.57;8.50;;;;;;;;;;6123193;23;20017;-65
2021/08/27 09:08:00;;;;;;;12.45;8.10;;;;;;;;;;6123261;23;20010;-66
2021/08/27 09:10:26;;;;;;;11.40;7.78;;;;;;;;;;6123866;23;20002;-67
2021/08/27 09:12:52;;;;;;;15.82;8.25;;;;;;;;;;6124238;23;20438;-67
2021/08/27 09:15:20;;;;;;;16.45;9.05;;;;;;;;;;6124161;23;20010;-66
2021/08/27 09:17:50;;;;;;;18.15;9.07;;;;;;;;;;6124364;23;19994;-66
2021/08/27 09:20:17;;;;;;;19.80;9.57;;;;;;;;;;6124927;23;20335;-65
2021/08/27 09:22:48;;;;;;;12.80;8.40;;;;;;;;;;6123739;23;20005;-66
2021/08/27 09:25:14;;;;;;;16.58;9.23;;;;;;;;;;6124442;23;20008;-64
2021/08/27 09:27:58;;;;;;;16.25;8.73;;;;;;;;;;6090248;23;20069;-68
2021/08/27 09:30:24;;;;;;;15.93;9.32;;;;;;;;;;6123414;23;19998;-68
2021/08/27 09:32:49;;;;;;;14.52;9.45;;;;;;;;;;6122232;23;20339;-69
2021/08/27 09:35:16;;;;;;;14.90;9.30;;;;;;;;;;6124548;23;19998;-68
2021/08/27 09:37:43;;;;;;;12.82;8.80;;;;;;;;;;6124386;23;20672;-67
2021/08/27 09:40:10;;;;;;;14.68;9.63;;;;;;;;;;6074683;23;20002;-68
2021/08/27 09:42:36;;;;;;;17.90;10.25;;;;;;;;;;6124511;23;20089;-68
2021/08/27 09:45:02;;;;;;;17.27;9.95;;;;;;;;;;6124839;23;20501;-68
2021/08/27 09:47:28;;;;;;;17.73;10.63;;;;;;;;;;6125647;23;20006;-68
2021/08/27 09:49:55;;;;;;;16.65;10.27;;;;;;;;;;6125828;23;19998;-68
2021/08/27 09:52:22;;;;;;;14.88;9.73;;;;;;;;;;6125321;23;19998;-68
2021/08/27 09:54:48;;;;;;;15.02;9.43;;;;;;;;;;6126129;23;19998;-67
2021/08/27 09:57:13;;;;;;;14.95;9.70;;;;;;;;;;6126578;23;20065;-68
2021/08/27 09:59:43;;;;;;;16.23;8.80;;;;;;;;;;6126458;23;20036;-68
2021/08/27 10:02:09;;;;;;;13.02;7.35;;;;;;;;;;6126465;23;19998;-68
2021/08/27 10:04:50;;;;;;;11.52;6.72;;;;;;;;;;6125889;23;20022;-68
2021/08/27 10:07:37;;;;;;;18.75;7.63;;;;;;;;;;6127380;23;20008;-68
2021/08/27 10:10:04;;;;;;;11.48;6.60;;;;;;;;;;6127274;23;20002;-68
2021/08/27 10:12:32;;;;;;;9.95;5.78;;;;;;;;;;6125892;23;20030;-68
2021/08/27 10:14:58;;;;;;;7.90;5.68;;;;;;;;;;6100519;23;20034;-68
2021/08/27 10:17:25;;;;;;;9.05;5.13;;;;;;;;;;6125325;23;19998;-68
2021/08/27 10:19:50;;;;;;;8.32;5.47;;;;;;;;;;6120983;23;20090;-68
2021/08/27 10:22:16;;;;;;;9.70;5.70;;;;;;;;;;6125372;23;20033;-68
2021/08/27 10:24:44;;;;;;;8.77;5.13;;;;;;;;;;6125885;23;20009;-68
2021/08/27 10:27:10;;;;;;;9.82;5.50;;;;;;;;;;6126401;23;20001;-68
2021/08/27 10:29:47;;;;;;;9.38;5.32;;;;;;;;;;6126379;23;19997;-69
2021/08/27 10:32:12;;;;;;;12.40;6.22;;;;;;;;;;6126267;23;20375;-68
2021/08/27 10:34:39;;;;;;;9.40;4.95;;;;;;;;;;6125572;23;20034;-68
2021/08/27 10:37:05;;;;;;;6.80;4.25;;;;;;;;;;6126484;23;20122;-69
2021/08/27 10:39:31;;;;;;;8.32;4.82;;;;;;;;;;6126328;23;20419;-68
2021/08/27 10:41:56;;;;;;;6.72;4.57;;;;;;;;;;6125941;23;19994;-69
2021/08/27 10:44:42;;;;;;;12.70;4.82;;;;;;;;;;6123130;23;20013;-68
2021/08/27 10:47:08;;;;;;;7.57;4.30;;;;;;;;;;6093537;23;20002;-72
2021/08/27 10:49:53;;;;;;;9.57;4.47;;;;;;;;;;6121414;23;20017;-73
2021/08/27 10:52:27;;;;;;;7.60;4.07;;;;;;;;;;6125750;23;20002;-75
2021/08/27 10:55:10;;;;;;;9.15;4.30;;;;;;;;;;6123221;23;20085;-74
2021/08/27 10:57:43;;;;;;;6.50;4.40;;;;;;;;;;6125706;23;20026;-75
2021/08/27 11:00:09;;;;;;;10.32;4.80;;;;;;;;;;6099469;23;20005;-69
2021/08/27 11:02:53;;;;;;;5.53;4.18;;;;;;;;;;6122651;23;20002;-69
2021/08/27 11:05:37;;;;;;;10.55;4.85;;;;;;;;;;6125034;23;20448;-69
2021/08/27 11:08:12;;;;;;;6.32;3.92;;;;;;;;;;6124882;23;19991;-71
2021/08/27 11:10:39;;;;;;;6.75;4.40;;;;;;;;;;6124634;23;20432;-68
2021/08/27 11:13:12;;;;;;;7.55;4.82;;;;;;;;;;6124847;23;19994;-69
2021/08/27 11:15:38;;;;;;;8.40;4.47;;;;;;;;;;6124959;23;20037;-69
2021/08/27 11:18:21;;;;;;;11.10;5.18;;;;;;;;;;6068904;23;20297;-68
2021/08/27 11:20:47;;;;;;;7.22;4.75;;;;;;;;;;6099812;23;20478;-68
2021/08/27 11:23:13;;;;;;;6.50;4.20;;;;;;;;;;6124839;23;20006;-69
2021/08/27 11:25:39;;;;;;;10.13;4.13;;;;;;;;;;6124293;23;20013;-69
2021/08/27 11:28:15;;;;;;;10.20;4.30;;;;;;;;;;6099301;23;20006;-68
2021/08/27 11:30:44;;;;;;;5.70;4.00;;;;;;;;;;6125435;23;20005;-69
2021/08/27 11:33:28;;;;;;;6.88;4.97;;;;;;;;;;6092631;23;20002;-70
2021/08/27 11:35:55;;;;;;;10.75;4.70;;;;;;;;;;6122942;23;20053;-69
2021/08/27 11:38:21;;;;;;;8.05;5.03;;;;;;;;;;6124644;23;20017;-69
2021/08/27 11:40:47;;;;;;;7.53;4.53;;;;;;;;;;6124446;23;20005;-69
2021/08/27 11:43:12;;;;;;;8.75;4.70;;;;;;;;;;6125142;23;20002;-69
2021/08/27 11:45:38;;;;;;;7.60;5.05;;;;;;;;;;6124803;23;20029;-71
2021/08/27 11:48:07;;;;;;;7.47;4.53;;;;;;;;;;6124447;23;20084;-71
2021/08/27 11:50:39;;;;;;;6.95;4.80;;;;;;;;;;6098720;23;19998;-70
2021/08/27 11:53:05;;;;;;;6.13;4.22;;;;;;;;;;6124763;23;19994;-70
2021/08/27 11:55:31;;;;;;;7.57;4.55;;;;;;;;;;6124271;23;20076;-72
2021/08/27 11:57:59;;;;;;;5.38;4.25;;;;;;;;;;6074881;23;20454;-70
2021/08/27 12:00:38;;;;;;;11.57;5.07;;;;;;;;;;6124082;23;19998;-72
2021/08/27 12:03:04;;;;;;;6.32;4.93;;;;;;;;;;6097782;23;20424;-72
2021/08/27 12:05:31;;;;;;;9.57;5.38;;;;;;;;;;6124287;23;20017;-72
2021/08/27 12:07:58;;;;;;;7.03;5.03;;;;;;;;;;6123156;23;20006;-72
2021/08/27 12:10:26;;;;;;;9.00;5.18;;;;;;;;;;6097229;23;20372;-72
2021/08/27 12:12:53;;;;;;;7.20;5.28;;;;;;;;;;6123404;23;20001;-73
2021/08/27 12:15:20;;;;;;;7.18;5.50;;;;;;;;;;6098393;23;20036;-74
2021/08/27 12:17:52;;;;;;;6.40;5.40;;;;;;;;;;6124517;23;20001;-72
2021/08/27 12:20:18;;;;;;;9.68;5.65;;;;;;;;;;6098466;23;20378;-75
2021/08/27 12:22:45;;;;;;;10.55;5.85;;;;;;;;;;6123787;23;20018;-75
2021/08/27 12:25:26;;;;;;;9.98;6.10;;;;;;;;;;6124043;23;20009;-71
2021/08/27 12:27:52;;;;;;;8.60;6.30;;;;;;;;;;6097774;23;20006;-71
2021/08/27 12:30:19;;;;;;;6.35;3.08;;;;;;;;;;6124178;23;19998;-75
2021/08/27 12:32:44;;;;;;;4.72;2.38;;;;;;;;;;6123533;23;20007;-74
2021/08/27 12:35:11;;;;;;;4.35;2.13;;;;;;;;;;6124033;23;20330;-74
2021/08/27 12:37:37;;;;;;;3.30;1.85;;;;;;;;;;6123754;23;20088;-77
2021/08/27 12:40:11;;;;;;;10.88;2.38;;;;;;;;;;6122655;23;19998;-74
2021/08/27 12:42:37;;;;;;;4.18;1.98;;;;;;;;;;6119800;23;19994;-74
2021/08/27 12:45:04;;;;;;;7.22;2.17;;;;;;;;;;6123289;23;20336;-73
2021/08/27 12:47:34;;;;;;;10.05;2.13;;;;;;;;;;6097800;23;20005;-75
2021/08/27 12:50:05;;;;;;;2.30;1.80;;;;;;;;;;6097186;23;20002;-72
2021/08/27 12:52:31;;;;;;;4.97;1.70;;;;;;;;;;6122788;23;20101;-73
2021/08/27 12:54:56;;;;;;;4.85;1.70;;;;;;;;;;6123497;23;20025;-72
2021/08/27 12:57:22;;;;;;;13.75;3.78;;;;;;;;;;6123768;23;20028;-72
2021/08/27 12:59:54;;;;;;;3.42;1.30;;;;;;;;;;6123030;23;20076;-76
2021/08/27 13:02:21;;;;;;;2.92;1.30;;;;;;;;;;6123278;23;20033;-73
2021/08/27 13:04:48;;;;;;;2.60;1.48;;;;;;;;;;6036335;23;1299140;-72
2021/08/27 13:07:27;;;;;;;2.80;1.70;;;;;;;;;;6094452;23;20038;-73
2021/08/27 13:10:11;;;;;;;1.75;1.40;;;;;;;;;;6093498;23;20070;-72
2021/08/27 13:12:38;;;;;;;1.52;1.23;;;;;;;;;;6092156;23;20170;-73
2021/08/27 13:15:14;;;;;;;4.18;1.60;;;;;;;;;;6094774;23;20027;-71
2021/08/27 13:17:39;;;;;;;3.92;1.45;;;;;;;;;;6094745;23;20313;-74
2021/08/27 13:20:05;;;;;;;2.58;1.65;;;;;;;;;;6094728;23;20009;-71
2021/08/27 13:22:41;;;;;;;2.80;1.70;;;;;;;;;;6092829;23;20006;-73
2021/08/27 13:25:09;;;;;;;2.75;1.40;;;;;;;;;;6096800;23;20037;-76
2021/08/27 13:27:42;;;;;;;1.58;1.25;;;;;;;;;;6096655;23;20010;-79
2021/08/27 13:30:09;;;;;;;4.07;1.73;;;;;;;;;;6096174;23;20093;-76
2021/08/27 13:32:47;;;;;;;1.70;1.40;;;;;;;;;;6095640;23;20061;-78
2021/08/27 13:35:13;;;;;;;1.92;1.23;;;;;;;;;;6091801;23;20025;-72
2021/08/27 13:37:43;;;;;;;4.75;1.20;;;;;;;;;;6060176;23;20010;-74
2021/08/27 13:40:10;;;;;;;1.48;0.90;;;;;;;;;;6096222;23;20439;-72
2021/08/27 13:42:36;;;;;;;1.35;1.25;;;;;;;;;;6096064;23;20003;-71
2021/08/27 13:45:03;;;;;;;1.63;1.50;;;;;;;;;;6096283;23;20101;-72
2021/08/27 13:47:28;;;;;;;3.80;1.60;;;;;;;;;;6072546;23;20061;-72
2021/08/27 13:49:54;;;;;;;2.97;1.80;;;;;;;;;;6097895;23;20309;-72
2021/08/27 13:52:21;;;;;;;3.45;2.00;;;;;;;;;;6098282;23;20041;-72
2021/08/27 13:54:47;;;;;;;3.47;1.90;;;;;;;;;;6097901;23;20003;-72
2021/08/27 13:57:12;;;;;;;3.15;2.78;;;;;;;;;;6096528;23;20009;-72
2021/08/27 13:59:39;;;;;;;4.32;2.97;;;;;;;;;;6096611;23;20002;-72
2021/08/27 14:02:06;;;;;;;4.65;3.13;;;;;;;;;;6096581;23;20330;-71
2021/08/27 14:04:32;;;;;;;3.95;2.88;;;;;;;;;;6099626;23;20010;-71
2021/08/27 14:07:02;;;;;;;2.72;2.25;;;;;;;;;;6127325;23;20001;-71
2021/08/27 14:09:28;;;;;;;4.65;2.03;;;;;;;;;;6127085;23;20002;-72
2021/08/27 14:11:54;;;;;;;2.10;1.90;;;;;;;;;;6126675;23;20030;-70
2021/08/27 14:14:20;;;;;;;5.75;2.13;;;;;;;;;;6127218;23;20045;-72
2021/08/27 14:16:47;;;;;;;3.10;1.90;;;;;;;;;;6126929;23;19998;-72
2021/08/27 14:19:13;;;;;;;6.05;2.40;;;;;;;;;;6127030;23;20025;-72
2021/08/27 14:21:40;;;;;;;5.28;2.80;;;;;;;;;;6126880;23;20005;-70
2021/08/27 14:24:06;;;;;;;5.80;2.97;;;;;;;;;;6126778;23;20013;-72
2021/08/27 14:26:33;;;;;;;4.82;3.78;;;;;;;;;;6126712;23;19998;-71
2021/08/27 14:28:58;;;;;;;4.03;3.63;;;;;;;;;;6127515;23;19993;-72
2021/08/27 14:31:25;;;;;;;8.57;3.50;;;;;;;;;;6127382;23;20008;-72
2021/08/27 14:33:58;;;;;;;4.78;3.08;;;;;;;;;;6100880;23;20006;-71
2021/08/27 14:36:25;;;;;;;8.50;3.80;;;;;;;;;;6126855;23;20056;-72
2021/08/27 14:38:52;;;;;;;6.70;3.40;;;;;;;;;;6126966;23;20025;-71
2021/08/27 14:41:18;;;;;;;5.85;3.53;;;;;;;;;;6126772;23;20367;-71